createdAt,value
2024-03-26T00:00:16.651Z,3.12
2024-03-26T00:01:17.182Z,3.28
2024-03-26T00:02:16.711Z,3.39
2024-03-26T00:03:17.272Z,3.13
2024-03-26T00:04:16.833Z,3.03
2024-03-26T00:05:16.392Z,2.95
2024-03-26T00:06:16.968Z,2.91
2024-03-26T00:07:16.516Z,2.98
2024-03-26T00:08:17.037Z,3.06
2024-03-26T00:09:16.651Z,2.91
2024-03-26T00:10:18.054Z,2.91
2024-03-26T00:11:16.594Z,2.81
2024-03-26T00:12:17.111Z,2.78
2024-03-26T00:13:16.649Z,2.94
2024-03-26T00:14:17.193Z,3.06
2024-03-26T00:15:16.724Z,3.15
2024-03-26T00:16:17.280Z,2.99
2024-03-26T00:17:16.815Z,2.89
2024-03-26T00:18:16.420Z,2.84
2024-03-26T00:19:16.969Z,2.82
2024-03-26T00:20:16.528Z,2.87
2024-03-26T00:21:19.674Z,2.91
2024-03-26T00:22:17.086Z,2.84
2024-03-26T00:23:16.620Z,2.82
2024-03-26T00:24:17.166Z,2.77
2024-03-26T00:25:16.713Z,2.77
2024-03-26T00:26:17.248Z,2.74
2024-03-26T00:27:16.800Z,2.74
2024-03-26T00:28:16.330Z,2.85
2024-03-26T00:29:16.890Z,2.84
2024-03-26T00:30:16.416Z,2.84
2024-03-26T00:31:16.942Z,2.78
2024-03-26T00:32:16.501Z,2.88
2024-03-26T00:33:17.043Z,2.79
2024-03-26T00:34:16.553Z,2.72
2024-03-26T00:35:17.081Z,2.72
2024-03-26T00:36:16.608Z,2.72
2024-03-26T00:37:17.177Z,2.72
2024-03-26T00:38:16.727Z,2.70
2024-03-26T00:39:17.290Z,2.79
2024-03-26T00:40:16.823Z,2.71
2024-03-26T00:41:16.355Z,2.68
2024-03-26T00:42:16.892Z,2.67
2024-03-26T00:43:16.429Z,2.72
2024-03-26T00:44:16.933Z,2.67
2024-03-26T00:45:16.489Z,2.72
2024-03-26T00:46:17.086Z,2.67
2024-03-26T00:47:16.624Z,2.79
2024-03-26T00:48:17.202Z,2.72
2024-03-26T00:49:16.802Z,2.70
2024-03-26T00:50:16.335Z,2.68
2024-03-26T00:51:16.893Z,2.65
2024-03-26T00:52:16.458Z,2.64
2024-03-26T00:53:16.990Z,2.81
2024-03-26T00:54:16.532Z,2.88
2024-03-26T00:55:17.077Z,2.92
2024-03-26T00:56:16.634Z,2.82
2024-03-26T00:57:17.188Z,2.88
2024-03-26T00:58:16.736Z,2.84
2024-03-26T00:59:17.290Z,2.78
2024-03-26T01:00:16.880Z,2.71
2024-03-26T01:01:17.282Z,2.59
2024-03-26T01:02:16.838Z,2.44
2024-03-26T01:03:16.391Z,2.50
2024-03-26T01:04:16.954Z,2.61
2024-03-26T01:05:16.544Z,2.54
2024-03-26T01:06:17.123Z,2.40
2024-03-26T01:07:18.570Z,2.37
2024-03-26T01:08:16.898Z,2.22
2024-03-26T01:09:16.468Z,2.25
2024-03-26T01:10:17.025Z,2.16
2024-03-26T01:11:16.585Z,2.17
2024-03-26T01:12:17.101Z,2.29
2024-03-26T01:13:16.664Z,2.70
2024-03-26T01:14:17.243Z,2.40
2024-03-26T01:15:16.828Z,2.56
2024-03-26T01:16:16.404Z,2.75
2024-03-26T01:17:16.941Z,2.70
2024-03-26T01:18:16.499Z,2.59
2024-03-26T01:19:17.058Z,2.67
2024-03-26T01:20:16.598Z,2.75
2024-03-26T01:21:18.449Z,2.75
2024-03-26T01:22:16.540Z,2.70
2024-03-26T01:23:17.106Z,2.63
2024-03-26T01:24:16.662Z,2.57
2024-03-26T01:25:17.239Z,2.57
2024-03-26T01:26:16.776Z,2.56
2024-03-26T01:27:16.315Z,2.57
2024-03-26T01:28:16.863Z,2.59
2024-03-26T01:29:16.435Z,2.56
2024-03-26T01:30:17.051Z,2.49
2024-03-26T01:31:16.642Z,2.59
2024-03-26T01:32:17.192Z,2.63
2024-03-26T01:33:16.755Z,2.44
2024-03-26T01:34:17.297Z,2.26
2024-03-26T01:35:16.827Z,2.06
2024-03-26T01:36:16.381Z,1.99
2024-03-26T01:37:16.905Z,2.15
2024-03-26T01:38:16.424Z,2.17
2024-03-26T01:39:16.955Z,2.20
2024-03-26T01:40:16.515Z,2.33
2024-03-26T01:41:17.052Z,2.40
2024-03-26T01:42:16.615Z,2.16
2024-03-26T01:43:17.161Z,2.13
2024-03-26T01:44:16.682Z,2.26
2024-03-26T01:45:17.208Z,2.32
2024-03-26T01:46:16.774Z,2.29
2024-03-26T01:47:16.349Z,2.19
2024-03-26T01:48:16.905Z,2.46
2024-03-26T01:49:16.425Z,2.46
2024-03-26T01:50:16.954Z,2.57
2024-03-26T01:51:16.533Z,2.64
2024-03-26T01:52:17.103Z,2.68
2024-03-26T01:53:16.656Z,2.72
2024-03-26T01:54:17.195Z,2.70
2024-03-26T01:55:16.752Z,2.43
2024-03-26T01:56:16.313Z,2.25
2024-03-26T01:57:16.854Z,2.04
2024-03-26T01:58:16.391Z,2.30
2024-03-26T01:59:16.917Z,2.25
2024-03-26T02:00:16.459Z,2.05
2024-03-26T02:01:17.046Z,1.92
2024-03-26T02:02:16.580Z,1.81
2024-03-26T02:03:17.130Z,1.69
2024-03-26T02:04:16.648Z,1.61
2024-03-26T02:05:17.344Z,1.53
2024-03-26T02:06:16.902Z,1.52
2024-03-26T02:07:16.418Z,1.39
2024-03-26T02:08:16.943Z,1.38
2024-03-26T02:09:16.474Z,1.31
2024-03-26T02:10:16.995Z,1.21
2024-03-26T02:11:16.506Z,1.22
2024-03-26T02:12:17.053Z,1.18
2024-03-26T02:13:16.613Z,1.18
2024-03-26T02:14:17.159Z,1.14
2024-03-26T02:15:16.678Z,1.09
2024-03-26T02:16:17.218Z,1.09
2024-03-26T02:17:16.759Z,1.05
2024-03-26T02:18:17.286Z,1.02
2024-03-26T02:19:16.803Z,1.01
2024-03-26T02:20:16.338Z,0.95
2024-03-26T02:21:16.920Z,0.92
2024-03-26T02:22:16.450Z,0.91
2024-03-26T02:23:17.013Z,0.90
2024-03-26T02:24:16.554Z,0.87
2024-03-26T02:25:17.083Z,0.87
2024-03-26T02:26:16.637Z,0.87
2024-03-26T02:27:17.181Z,0.83
2024-03-26T02:28:16.753Z,0.84
2024-03-26T02:29:17.314Z,0.81
2024-03-26T02:30:16.881Z,0.80
2024-03-26T02:31:16.459Z,1.07
2024-03-26T02:32:17.009Z,1.05
2024-03-26T02:33:16.580Z,0.97
2024-03-26T02:34:17.121Z,0.98
2024-03-26T02:35:16.696Z,0.99
2024-03-26T02:36:17.223Z,0.94
2024-03-26T02:37:16.749Z,1.01
2024-03-26T02:38:17.275Z,1.22
2024-03-26T02:39:16.846Z,1.26
2024-03-26T02:40:16.372Z,1.45
2024-03-26T02:41:16.952Z,1.88
2024-03-26T02:42:16.479Z,1.94
2024-03-26T02:43:17.000Z,2.10
2024-03-26T02:44:16.547Z,2.16
2024-03-26T02:45:17.090Z,2.10
2024-03-26T02:46:16.614Z,2.05
2024-03-26T02:47:17.154Z,2.12
2024-03-26T02:48:16.709Z,2.12
2024-03-26T02:49:17.247Z,2.09
2024-03-26T02:50:16.749Z,1.99
2024-03-26T02:51:17.258Z,1.70
2024-03-26T02:52:16.789Z,1.53
2024-03-26T02:53:16.337Z,1.45
2024-03-26T02:54:16.854Z,1.19
2024-03-26T02:55:16.376Z,1.18
2024-03-26T02:56:16.923Z,1.14
2024-03-26T02:57:16.462Z,1.04
2024-03-26T02:58:17.013Z,1.14
2024-03-26T02:59:16.554Z,1.11
2024-03-26T03:00:17.096Z,1.09
2024-03-26T03:01:16.613Z,0.97
2024-03-26T03:02:17.185Z,0.83
2024-03-26T03:03:17.166Z,0.90
2024-03-26T03:04:16.739Z,1.12
2024-03-26T03:05:17.331Z,0.97
2024-03-26T03:06:16.891Z,0.94
2024-03-26T03:07:16.395Z,0.90
2024-03-26T03:08:16.907Z,0.79
2024-03-26T03:09:16.506Z,1.09
2024-03-26T03:10:17.033Z,1.09
2024-03-26T03:11:16.593Z,1.19
2024-03-26T03:12:17.154Z,0.95
2024-03-26T03:13:16.732Z,0.94
2024-03-26T03:14:17.340Z,0.83
2024-03-26T03:15:16.920Z,0.79
2024-03-26T03:16:16.463Z,0.80
2024-03-26T03:17:17.010Z,0.70
2024-03-26T03:18:16.559Z,0.66
2024-03-26T03:19:17.134Z,0.63
2024-03-26T03:20:16.680Z,0.60
2024-03-26T03:21:17.243Z,0.62
2024-03-26T03:22:16.805Z,0.53
2024-03-26T03:23:16.313Z,0.52
2024-03-26T03:24:16.821Z,0.62
2024-03-26T03:25:16.354Z,0.53
2024-03-26T03:26:16.882Z,0.52
2024-03-26T03:27:16.438Z,0.52
2024-03-26T03:28:16.993Z,0.49
2024-03-26T03:29:16.500Z,0.52
2024-03-26T03:30:17.046Z,0.48
2024-03-26T03:31:16.573Z,0.46
2024-03-26T03:32:17.152Z,0.45
2024-03-26T03:33:16.686Z,0.46
2024-03-26T03:34:17.213Z,0.45
2024-03-26T03:35:16.831Z,0.39
2024-03-26T03:36:16.393Z,0.36
2024-03-26T03:37:16.973Z,0.34
2024-03-26T03:38:16.518Z,0.56
2024-03-26T03:39:17.035Z,0.45
2024-03-26T03:40:16.598Z,0.43
2024-03-26T03:41:17.135Z,0.32
2024-03-26T03:42:16.671Z,0.29
2024-03-26T03:43:17.197Z,0.28
2024-03-26T03:44:16.710Z,0.28
2024-03-26T03:45:17.258Z,0.24
2024-03-26T03:46:16.816Z,0.21
2024-03-26T03:47:16.333Z,0.20
2024-03-26T03:48:16.870Z,0.17
2024-03-26T03:49:16.409Z,0.17
2024-03-26T03:50:16.951Z,0.18
2024-03-26T03:51:16.535Z,0.18
2024-03-26T03:52:16.972Z,0.21
2024-03-26T03:53:16.492Z,0.20
2024-03-26T03:54:17.048Z,0.20
2024-03-26T03:55:16.589Z,0.20
2024-03-26T03:56:17.122Z,0.20
2024-03-26T03:57:16.669Z,0.17
2024-03-26T03:58:17.250Z,0.17
2024-03-26T03:59:16.807Z,0.22
2024-03-26T04:00:16.334Z,0.24
2024-03-26T04:01:16.846Z,0.22
2024-03-26T04:02:16.372Z,0.20
2024-03-26T04:03:16.881Z,0.17
2024-03-26T04:04:16.419Z,0.20
2024-03-26T04:05:16.974Z,0.17
2024-03-26T04:06:16.544Z,0.14
2024-03-26T04:07:17.132Z,0.13
2024-03-26T04:08:16.694Z,0.11
2024-03-26T04:09:17.254Z,0.10
2024-03-26T04:10:16.796Z,0.08
2024-03-26T04:11:16.316Z,0.02
2024-03-26T04:12:16.866Z,0.02
2024-03-26T04:13:16.402Z,0.05
2024-03-26T04:14:16.934Z,-0.02
2024-03-26T04:15:16.461Z,0.20
2024-03-26T04:16:16.979Z,0.22
2024-03-26T04:17:16.519Z,0.26
2024-03-26T04:18:17.068Z,0.20
2024-03-26T04:19:16.599Z,0.14
2024-03-26T04:20:17.123Z,0.14
2024-03-26T04:21:16.673Z,0.08
2024-03-26T04:22:17.205Z,0.10
2024-03-26T04:23:16.760Z,0.07
2024-03-26T04:24:16.313Z,0.10
2024-03-26T04:25:16.847Z,0.05
2024-03-26T04:26:16.437Z,0.11
2024-03-26T04:27:16.938Z,0.13
2024-03-26T04:28:16.495Z,0.08
2024-03-26T04:29:17.061Z,0.10
2024-03-26T04:30:16.593Z,0.11
2024-03-26T04:31:17.146Z,0.10
2024-03-26T04:32:16.769Z,0.07
2024-03-26T04:33:16.345Z,0.05
2024-03-26T04:34:16.892Z,0.07
2024-03-26T04:35:16.476Z,0.08
2024-03-26T04:36:17.033Z,0.08
2024-03-26T04:37:16.582Z,0.08
2024-03-26T04:38:17.112Z,0.07
2024-03-26T04:39:16.633Z,0.04
2024-03-26T04:40:17.214Z,0.02
2024-03-26T04:41:16.767Z,0.01
2024-03-26T04:42:16.337Z,-0.00
2024-03-26T04:43:16.881Z,0.01
2024-03-26T04:44:16.405Z,0.20
2024-03-26T04:45:16.992Z,0.13
2024-03-26T04:46:16.537Z,0.14
2024-03-26T04:47:17.056Z,0.10
2024-03-26T04:48:16.581Z,0.10
2024-03-26T04:49:17.105Z,0.17
2024-03-26T04:50:16.660Z,0.07
2024-03-26T04:51:17.210Z,0.07
2024-03-26T04:52:16.798Z,0.01
2024-03-26T04:53:16.352Z,-0.00
2024-03-26T04:54:16.887Z,0.01
2024-03-26T04:55:16.403Z,-0.00
2024-03-26T04:56:16.963Z,-0.02
2024-03-26T04:57:16.536Z,-0.03
2024-03-26T04:58:17.110Z,-0.02
2024-03-26T04:59:16.649Z,-0.05
2024-03-26T05:00:17.334Z,-0.05
2024-03-26T05:01:16.887Z,-0.02
2024-03-26T05:02:16.407Z,-0.00
2024-03-26T05:03:16.970Z,0.02
2024-03-26T05:04:16.541Z,-0.00
2024-03-26T05:05:17.143Z,-0.00
2024-03-26T05:06:16.782Z,-0.00
2024-03-26T05:07:16.324Z,-0.02
2024-03-26T05:08:16.864Z,-0.09
2024-03-26T05:09:16.374Z,-0.09
2024-03-26T05:10:16.942Z,-0.10
2024-03-26T05:11:16.493Z,-0.07
2024-03-26T05:12:17.015Z,-0.07
2024-03-26T05:13:16.568Z,-0.07
2024-03-26T05:14:17.095Z,-0.05
2024-03-26T05:15:16.625Z,-0.02
2024-03-26T05:16:17.174Z,-0.06
2024-03-26T05:17:16.692Z,-0.05
2024-03-26T05:18:17.197Z,-0.06
2024-03-26T05:19:16.763Z,-0.09
2024-03-26T05:20:16.324Z,-0.06
2024-03-26T05:21:16.914Z,-0.03
2024-03-26T05:22:16.440Z,0.08
2024-03-26T05:23:16.999Z,0.11
2024-03-26T05:24:16.593Z,0.11
2024-03-26T05:25:17.133Z,0.13
2024-03-26T05:26:16.732Z,0.14
2024-03-26T05:27:17.280Z,0.11
2024-03-26T05:28:16.810Z,0.20
2024-03-26T05:29:16.333Z,0.11
2024-03-26T05:30:16.888Z,0.13
2024-03-26T05:31:16.438Z,0.15
2024-03-26T05:32:16.959Z,0.17
2024-03-26T05:33:16.496Z,0.20
2024-03-26T05:34:17.045Z,0.14
2024-03-26T05:35:16.583Z,0.14
2024-03-26T05:36:17.115Z,0.18
2024-03-26T05:37:16.654Z,0.21
2024-03-26T05:38:17.129Z,0.24
2024-03-26T05:39:16.658Z,0.25
2024-03-26T05:40:17.302Z,0.26
2024-03-26T05:41:16.848Z,0.32
2024-03-26T05:42:16.482Z,0.34
2024-03-26T05:43:17.203Z,0.36
2024-03-26T05:44:16.806Z,0.43
2024-03-26T05:45:16.361Z,0.36
2024-03-26T05:46:16.955Z,0.38
2024-03-26T05:47:16.537Z,0.43
2024-03-26T05:48:17.081Z,0.46
2024-03-26T05:49:16.594Z,0.48
2024-03-26T05:50:17.143Z,0.56
2024-03-26T05:51:16.731Z,0.60
2024-03-26T05:52:17.282Z,0.62
2024-03-26T05:53:16.818Z,0.59
2024-03-26T05:54:16.340Z,0.66
2024-03-26T05:55:17.000Z,0.73
2024-03-26T05:56:16.555Z,0.79
2024-03-26T05:57:17.087Z,0.94
2024-03-26T05:58:16.615Z,1.01
2024-03-26T05:59:17.167Z,1.07
2024-03-26T06:00:16.717Z,1.12
2024-03-26T06:01:17.260Z,1.19
2024-03-26T06:02:16.796Z,1.25
2024-03-26T06:03:16.318Z,1.38
2024-03-26T06:04:16.887Z,1.49
2024-03-26T06:05:16.422Z,1.54
2024-03-26T06:06:16.942Z,1.66
2024-03-26T06:07:16.523Z,1.71
2024-03-26T06:08:17.054Z,1.74
2024-03-26T06:09:16.643Z,1.87
2024-03-26T06:10:17.250Z,2.04
2024-03-26T06:11:16.778Z,2.09
2024-03-26T06:12:17.336Z,2.16
2024-03-26T06:13:16.894Z,2.17
2024-03-26T06:14:16.483Z,2.29
2024-03-26T06:15:17.074Z,2.36
2024-03-26T06:16:16.625Z,2.46
2024-03-26T06:17:17.177Z,2.60
2024-03-26T06:18:16.710Z,2.68
2024-03-26T06:19:17.281Z,2.82
2024-03-26T06:20:16.809Z,2.91
2024-03-26T06:21:16.373Z,2.95
2024-03-26T06:22:16.895Z,3.03
2024-03-26T06:23:16.463Z,3.16
2024-03-26T06:24:17.026Z,3.33
2024-03-26T06:25:16.581Z,3.41
2024-03-26T06:26:17.131Z,3.62
2024-03-26T06:27:16.684Z,3.68
2024-03-26T06:28:17.245Z,3.57
2024-03-26T06:29:16.788Z,3.64
2024-03-26T06:30:16.346Z,3.75
2024-03-26T06:31:16.915Z,3.74
2024-03-26T06:32:16.572Z,3.97
2024-03-26T06:33:17.114Z,4.10
2024-03-26T06:34:16.627Z,4.17
2024-03-26T06:35:17.136Z,4.30
2024-03-26T06:36:16.660Z,4.35
2024-03-26T06:37:17.216Z,4.33
2024-03-26T06:38:16.756Z,4.40
2024-03-26T06:39:17.294Z,4.62
2024-03-26T06:40:16.844Z,4.82
2024-03-26T06:41:16.404Z,4.92
2024-03-26T06:42:16.928Z,4.97
2024-03-26T06:43:16.495Z,5.11
2024-03-26T06:44:17.044Z,5.27
2024-03-26T06:45:16.593Z,5.48
2024-03-26T06:46:17.113Z,5.57
2024-03-26T06:47:16.667Z,5.31
2024-03-26T06:48:17.209Z,5.37
2024-03-26T06:49:16.747Z,5.18
2024-03-26T06:50:17.331Z,5.46
2024-03-26T06:51:16.885Z,5.55
2024-03-26T06:52:16.414Z,5.31
2024-03-26T06:53:16.971Z,5.15
2024-03-26T06:54:16.579Z,5.30
2024-03-26T06:55:17.206Z,5.49
2024-03-26T06:56:16.804Z,5.55
2024-03-26T06:57:16.384Z,5.75
2024-03-26T06:58:16.994Z,5.79
2024-03-26T06:59:16.551Z,5.90
2024-03-26T07:00:17.068Z,6.18
2024-03-26T07:01:16.621Z,6.29
2024-03-26T07:02:17.208Z,6.29
2024-03-26T07:03:16.729Z,6.26
2024-03-26T07:04:17.245Z,6.40
2024-03-26T07:05:16.844Z,6.57
2024-03-26T07:06:16.401Z,6.95
2024-03-26T07:07:16.962Z,7.01
2024-03-26T07:08:16.583Z,6.84
2024-03-26T07:09:17.125Z,6.91
2024-03-26T07:10:16.638Z,6.95
2024-03-26T07:11:17.290Z,7.29
2024-03-26T07:12:16.826Z,6.94
2024-03-26T07:13:16.406Z,7.00
2024-03-26T07:14:16.971Z,6.57
2024-03-26T07:15:16.498Z,6.82
2024-03-26T07:16:17.031Z,7.26
2024-03-26T07:17:16.588Z,7.05
2024-03-26T07:18:17.137Z,7.04
2024-03-26T07:19:16.671Z,7.32
2024-03-26T07:20:17.231Z,7.60
2024-03-26T07:21:16.782Z,7.66
2024-03-26T07:22:16.314Z,7.66
2024-03-26T07:23:16.892Z,8.06
2024-03-26T07:24:16.479Z,8.04
2024-03-26T07:25:17.033Z,7.74
2024-03-26T07:26:16.570Z,7.57
2024-03-26T07:27:17.088Z,7.84
2024-03-26T07:28:16.698Z,8.11
2024-03-26T07:29:17.210Z,8.39
2024-03-26T07:30:16.739Z,8.12
2024-03-26T07:31:17.270Z,7.67
2024-03-26T07:32:16.800Z,8.00
2024-03-26T07:33:16.363Z,8.12
2024-03-26T07:34:16.910Z,8.30
2024-03-26T07:35:16.446Z,8.96
2024-03-26T07:36:17.059Z,9.09
2024-03-26T07:37:16.587Z,9.51
2024-03-26T07:38:17.112Z,9.09
2024-03-26T07:39:16.665Z,8.87
2024-03-26T07:40:17.362Z,8.76
2024-03-26T07:41:16.933Z,8.85
2024-03-26T07:42:16.683Z,8.68
2024-03-26T07:43:21.610Z,8.72
2024-03-26T07:44:16.763Z,8.81
2024-03-26T07:45:16.347Z,8.54
2024-03-26T07:46:16.932Z,8.25
2024-03-26T07:47:16.516Z,8.43
2024-03-26T07:48:17.049Z,8.68
2024-03-26T07:49:16.674Z,8.46
2024-03-26T07:50:17.252Z,8.43
2024-03-26T07:51:16.785Z,8.39
2024-03-26T07:52:16.308Z,7.97
2024-03-26T07:53:16.873Z,8.23
2024-03-26T07:54:16.449Z,8.46
2024-03-26T07:55:17.058Z,8.35
2024-03-26T07:56:16.631Z,8.76
2024-03-26T07:57:17.206Z,8.74
2024-03-26T07:58:16.763Z,8.96
2024-03-26T07:59:16.300Z,8.92
2024-03-26T08:00:16.870Z,8.68
2024-03-26T08:01:16.630Z,8.47
2024-03-26T08:02:16.374Z,8.20
2024-03-26T08:03:16.936Z,8.29
2024-03-26T08:04:16.629Z,8.41
2024-03-26T08:05:17.222Z,8.48
2024-03-26T08:06:16.773Z,8.72
2024-03-26T08:07:16.365Z,8.79
2024-03-26T08:08:16.893Z,8.61
2024-03-26T08:09:16.569Z,8.57
2024-03-26T08:10:17.136Z,8.43
2024-03-26T08:11:16.745Z,8.64
2024-03-26T08:12:16.393Z,8.37
2024-03-26T08:13:17.072Z,8.15
2024-03-26T08:14:16.667Z,8.37
2024-03-26T08:15:17.221Z,8.47
2024-03-26T08:16:16.753Z,8.61
2024-03-26T08:17:17.268Z,8.72
2024-03-26T08:18:17.059Z,8.57
2024-03-26T08:19:16.632Z,8.37
2024-03-26T08:20:17.261Z,8.53
2024-03-26T08:21:17.144Z,8.57
2024-03-26T08:22:16.891Z,8.56
2024-03-26T08:23:16.587Z,8.43
2024-03-26T08:24:17.255Z,8.48
2024-03-26T08:25:17.124Z,8.71
2024-03-26T08:26:16.657Z,9.06
2024-03-26T08:27:17.296Z,8.98
2024-03-26T08:28:16.927Z,9.08
2024-03-26T08:29:16.522Z,9.01
2024-03-26T08:30:17.102Z,8.96
2024-03-26T08:31:16.633Z,9.06
2024-03-26T08:32:17.164Z,9.08
2024-03-26T08:33:16.749Z,9.08
2024-03-26T08:34:16.346Z,9.10
2024-03-26T08:35:18.348Z,8.74
2024-03-26T08:36:17.043Z,8.99
2024-03-26T08:37:16.607Z,9.27
2024-03-26T08:38:17.283Z,9.18
2024-03-26T08:39:16.837Z,9.31
2024-03-26T08:40:16.380Z,9.43
2024-03-26T08:41:17.029Z,9.44
2024-03-26T08:42:16.847Z,9.40
2024-03-26T08:43:16.520Z,9.12
2024-03-26T08:44:17.143Z,9.33
2024-03-26T08:45:16.770Z,9.40
2024-03-26T08:46:17.293Z,9.48
2024-03-26T08:47:16.825Z,9.50
2024-03-26T08:48:16.381Z,9.66
2024-03-26T08:49:16.927Z,9.65
2024-03-26T08:50:16.561Z,9.88
2024-03-26T08:51:17.060Z,9.76
2024-03-26T08:52:16.588Z,9.46
2024-03-26T08:53:17.118Z,9.72
2024-03-26T08:54:16.689Z,10.33
2024-03-26T08:55:17.323Z,10.41
2024-03-26T08:56:23.776Z,10.61
2024-03-26T08:57:17.022Z,10.75
2024-03-26T08:58:20.142Z,11.40
2024-03-26T08:59:16.938Z,11.76
2024-03-26T09:00:16.476Z,11.71
2024-03-26T09:01:17.097Z,12.24
2024-03-26T09:02:16.693Z,12.55
2024-03-26T09:03:17.216Z,12.04
2024-03-26T09:04:16.760Z,11.23
2024-03-26T09:05:16.332Z,12.19
2024-03-26T09:06:16.875Z,12.63
2024-03-26T09:07:16.496Z,13.49
2024-03-26T09:08:17.114Z,13.07
2024-03-26T09:09:16.700Z,12.63
2024-03-26T09:10:17.351Z,11.38
2024-03-26T09:11:16.946Z,11.41
2024-03-26T09:12:16.580Z,11.79
2024-03-26T09:13:17.148Z,11.96
2024-03-26T09:14:16.697Z,12.10
2024-03-26T09:15:17.222Z,11.61
2024-03-26T09:16:16.782Z,11.61
2024-03-26T09:17:16.331Z,12.14
2024-03-26T09:18:16.867Z,12.00
2024-03-26T09:19:16.409Z,11.69
2024-03-26T09:20:16.946Z,11.57
2024-03-26T09:21:16.463Z,11.62
2024-03-26T09:22:17.009Z,11.88
2024-03-26T09:23:16.557Z,11.90
2024-03-26T09:24:17.087Z,12.40
2024-03-26T09:25:16.615Z,12.52
2024-03-26T09:26:17.206Z,12.13
2024-03-26T09:27:16.830Z,12.30
2024-03-26T09:28:16.513Z,12.24
2024-03-26T09:29:17.082Z,12.60
2024-03-26T09:30:16.627Z,12.51
2024-03-26T09:31:16.445Z,12.13
2024-03-26T09:32:17.044Z,11.79
2024-03-26T09:33:16.592Z,11.72
2024-03-26T09:34:17.166Z,11.68
2024-03-26T09:35:16.693Z,11.68
2024-03-26T09:36:17.254Z,11.28
2024-03-26T09:37:16.790Z,11.11
2024-03-26T09:38:16.295Z,11.11
2024-03-26T09:39:17.009Z,11.48
2024-03-26T09:40:16.873Z,11.41
2024-03-26T09:41:16.545Z,11.34
2024-03-26T09:42:17.150Z,11.54
2024-03-26T09:43:19.454Z,11.18
2024-03-26T09:44:17.288Z,11.55
2024-03-26T09:45:16.926Z,11.61
2024-03-26T09:46:16.575Z,11.85
2024-03-26T09:47:17.136Z,12.21
2024-03-26T09:48:16.703Z,12.03
2024-03-26T09:49:17.239Z,12.10
2024-03-26T09:50:16.774Z,12.07
2024-03-26T09:51:16.323Z,12.04
2024-03-26T09:52:16.897Z,11.93
2024-03-26T09:53:16.514Z,11.76
2024-03-26T09:54:17.047Z,11.64
2024-03-26T09:55:16.612Z,11.45
2024-03-26T09:56:17.168Z,11.27
2024-03-26T09:57:16.753Z,11.65
2024-03-26T09:58:16.382Z,11.75
2024-03-26T09:59:16.951Z,11.92
2024-03-26T10:00:16.515Z,12.10
2024-03-26T10:01:17.055Z,12.16
2024-03-26T10:02:16.597Z,11.96
2024-03-26T10:03:17.127Z,12.01
2024-03-26T10:04:16.712Z,12.10
2024-03-26T10:05:17.288Z,12.40
2024-03-26T10:06:16.826Z,12.12
2024-03-26T10:07:16.372Z,12.20
2024-03-26T10:08:16.894Z,12.07
2024-03-26T10:09:16.470Z,12.20
2024-03-26T10:10:17.041Z,12.06
2024-03-26T10:11:16.565Z,12.10
2024-03-26T10:12:17.208Z,12.07
2024-03-26T10:13:16.777Z,12.25
2024-03-26T10:14:16.409Z,12.19
2024-03-26T10:15:17.014Z,12.01
2024-03-26T10:16:16.934Z,12.32
2024-03-26T10:17:16.559Z,12.20
2024-03-26T10:18:17.126Z,12.12
2024-03-26T10:19:16.686Z,12.20
2024-03-26T10:20:17.346Z,12.38
2024-03-26T10:21:16.909Z,12.41
2024-03-26T10:22:16.501Z,12.31
2024-03-26T10:23:17.017Z,12.34
2024-03-26T10:24:16.526Z,12.06
2024-03-26T10:25:17.071Z,12.30
2024-03-26T10:26:16.631Z,12.21
2024-03-26T10:27:17.258Z,12.35
2024-03-26T10:28:16.830Z,12.48
2024-03-26T10:29:16.375Z,12.51
2024-03-26T10:30:16.938Z,12.51
2024-03-26T10:31:16.556Z,11.97
2024-03-26T10:32:17.093Z,12.47
2024-03-26T10:33:16.623Z,12.58
2024-03-26T10:34:17.261Z,12.59
2024-03-26T10:35:16.819Z,12.72
2024-03-26T10:36:16.382Z,12.77
2024-03-26T10:37:16.942Z,12.96
2024-03-26T10:38:17.284Z,13.07
2024-03-26T10:39:17.149Z,13.25
2024-03-26T10:40:16.675Z,13.41
2024-03-26T10:41:17.244Z,13.84
2024-03-26T10:42:16.784Z,13.72
2024-03-26T10:43:16.357Z,13.67
2024-03-26T10:44:16.902Z,13.66
2024-03-26T10:45:23.550Z,14.14
2024-03-26T10:46:16.908Z,13.89
2024-03-26T10:47:16.498Z,13.48
2024-03-26T10:48:17.057Z,13.27
2024-03-26T10:49:16.666Z,13.46
2024-03-26T10:50:17.281Z,13.53
2024-03-26T10:51:16.828Z,13.46
2024-03-26T10:52:16.398Z,13.31
2024-03-26T10:53:19.015Z,13.52
2024-03-26T10:54:16.908Z,13.35
2024-03-26T10:55:16.455Z,13.18
2024-03-26T10:56:17.022Z,12.93
2024-03-26T10:57:16.525Z,12.93
2024-03-26T10:58:17.099Z,12.80
2024-03-26T10:59:16.621Z,12.63
2024-03-26T11:00:17.220Z,12.44
2024-03-26T11:01:16.793Z,12.42
2024-03-26T11:02:17.319Z,12.77
2024-03-26T11:03:16.940Z,12.87
2024-03-26T11:04:16.482Z,13.03
2024-03-26T11:05:17.034Z,13.25
2024-03-26T11:06:16.583Z,13.45
2024-03-26T11:07:17.145Z,13.39
2024-03-26T11:08:16.709Z,13.34
2024-03-26T11:09:17.281Z,13.38
2024-03-26T11:10:16.883Z,13.43
2024-03-26T11:11:16.523Z,13.62
2024-03-26T11:12:17.125Z,13.59
2024-03-26T11:13:16.680Z,13.15
2024-03-26T11:14:17.238Z,13.27
2024-03-26T11:15:16.818Z,13.41
2024-03-26T11:16:16.357Z,13.52
2024-03-26T11:17:16.882Z,13.69
2024-03-26T11:18:16.420Z,13.80
2024-03-26T11:19:16.970Z,13.79
2024-03-26T11:20:16.488Z,13.56
2024-03-26T11:21:17.047Z,13.59
2024-03-26T11:22:16.589Z,13.69
2024-03-26T11:23:17.131Z,13.77
2024-03-26T11:24:16.680Z,14.01
2024-03-26T11:25:17.243Z,13.62
2024-03-26T11:26:16.808Z,13.87
2024-03-26T11:27:16.411Z,13.43
2024-03-26T11:28:17.017Z,14.04
2024-03-26T11:29:16.548Z,14.31
2024-03-26T11:30:17.104Z,14.66
2024-03-26T11:31:16.625Z,15.05
2024-03-26T11:32:19.846Z,15.04
2024-03-26T11:33:16.909Z,15.36
2024-03-26T11:34:16.486Z,15.73
2024-03-26T11:35:17.014Z,15.91
2024-03-26T11:36:16.565Z,15.56
2024-03-26T11:37:17.144Z,15.36
2024-03-26T11:38:16.676Z,15.36
2024-03-26T11:39:17.207Z,14.17
2024-03-26T11:40:16.753Z,14.14
2024-03-26T11:41:16.347Z,14.14
2024-03-26T11:42:16.885Z,15.08
2024-03-26T11:43:16.467Z,15.07
2024-03-26T11:44:16.984Z,15.66
2024-03-26T11:45:16.565Z,15.88
2024-03-26T11:46:17.204Z,16.25
2024-03-26T11:47:16.817Z,16.54
2024-03-26T11:48:16.376Z,16.05
2024-03-26T11:49:16.934Z,15.59
2024-03-26T11:50:16.461Z,15.76
2024-03-26T11:51:17.005Z,15.81
2024-03-26T11:52:16.569Z,15.35
2024-03-26T11:53:17.161Z,14.90
2024-03-26T11:54:16.707Z,14.52
2024-03-26T11:55:17.335Z,14.95
2024-03-26T11:56:16.889Z,14.87
2024-03-26T11:57:16.473Z,14.73
2024-03-26T11:58:17.011Z,13.86
2024-03-26T11:59:16.593Z,14.18
2024-03-26T12:00:17.135Z,14.05
2024-03-26T12:01:16.703Z,14.04
2024-03-26T12:02:17.241Z,14.27
2024-03-26T12:03:16.782Z,14.17
2024-03-26T12:04:16.365Z,14.15
2024-03-26T12:05:16.932Z,13.84
2024-03-26T12:06:16.519Z,13.75
2024-03-26T12:07:17.077Z,13.89
2024-03-26T12:08:16.633Z,13.93
2024-03-26T12:09:17.165Z,13.90
2024-03-26T12:10:16.998Z,13.90
2024-03-26T12:11:16.558Z,14.07
2024-03-26T12:12:17.103Z,14.20
2024-03-26T12:13:16.660Z,14.18
2024-03-26T12:14:17.229Z,14.14
2024-03-26T12:15:16.787Z,14.10
2024-03-26T12:16:18.206Z,14.03
2024-03-26T12:17:17.036Z,14.00
2024-03-26T12:18:16.597Z,14.05
2024-03-26T12:19:17.177Z,14.29
2024-03-26T12:20:16.772Z,14.28
2024-03-26T12:21:16.311Z,14.31
2024-03-26T12:22:16.874Z,14.40
2024-03-26T12:23:16.422Z,14.36
2024-03-26T12:24:16.954Z,14.33
2024-03-26T12:25:16.551Z,14.24
2024-03-26T12:26:17.144Z,14.15
2024-03-26T12:27:16.789Z,13.98
2024-03-26T12:28:17.346Z,14.04
2024-03-26T12:29:16.923Z,14.12
2024-03-26T12:30:16.503Z,14.28
2024-03-26T12:31:17.051Z,14.51
2024-03-26T12:32:16.641Z,14.45
2024-03-26T12:33:17.254Z,14.49
2024-03-26T12:34:16.838Z,14.33
2024-03-26T12:35:16.379Z,14.04
2024-03-26T12:36:16.956Z,14.08
2024-03-26T12:37:16.491Z,14.04
2024-03-26T12:38:17.024Z,14.12
2024-03-26T12:39:16.621Z,14.18
2024-03-26T12:40:17.455Z,14.25
2024-03-26T12:41:17.383Z,14.14
2024-03-26T12:42:16.930Z,14.20
2024-03-26T12:43:16.466Z,14.28
2024-03-26T12:44:18.671Z,14.32
2024-03-26T12:45:17.149Z,14.32
2024-03-26T12:46:16.774Z,14.39
2024-03-26T12:47:17.386Z,14.38
2024-03-26T12:48:16.984Z,14.38
2024-03-26T12:49:16.672Z,14.45
2024-03-26T12:50:18.144Z,14.56
2024-03-26T12:51:16.714Z,14.40
2024-03-26T12:52:17.278Z,14.42
2024-03-26T12:53:16.798Z,14.52
2024-03-26T12:54:16.353Z,14.56
2024-03-26T12:55:17.046Z,14.46
2024-03-26T12:56:16.679Z,14.43
2024-03-26T12:57:17.327Z,14.42
2024-03-26T12:58:16.883Z,14.33
2024-03-26T12:59:16.413Z,14.32
2024-03-26T13:00:16.990Z,14.40
2024-03-26T13:01:16.521Z,14.59
2024-03-26T13:02:17.038Z,14.59
2024-03-26T13:03:16.620Z,14.53
2024-03-26T13:04:17.174Z,14.52
2024-03-26T13:05:16.752Z,14.46
2024-03-26T13:06:17.295Z,14.52
2024-03-26T13:07:16.840Z,14.49
2024-03-26T13:08:16.358Z,14.49